East Lynn, IL (60932)

7:17 PM CDT on August 29, 2016 (GMT -0500)
KILHOOPE3 | | Change Station

Elev 0 ft 40.48 °N, 87.66 °W | Updated 11 minutes ago

Clear
Clear
83.3 °F
Feels Like 91 °F
N
0.0
Wind Variable Wind from SE

Today
High -- | Low -- °F
--% Chance of Precip.
Yesterday
High -- | Low -- °F
Precip. -- in
Pressure 30.14 in
Visibility 10.0 miles
Clouds Clear
Heat Index 91 °F
Dew Point 76 °F
Humidity 78%
Rainfall 0.00 in
Snow Depth Not available.
6:16 AM 7:27 PM
Waning Crescent, 6% visible
METAR KDNV 292355Z AUTO 00000KT 10SM CLR 27/24 A3014 RMK AO2 T02700241 10311 20270
Pressure 30.14 in
Visibility 10.0 miles
Clouds Clear
Heat Index 91 °F
Dew Point 76 °F
Humidity 78%
Rainfall 0.00 in
Snow Depth Not available.
6:16 AM 7:27 PM
Waning Crescent, 6% visible
METAR KDNV 292355Z AUTO 00000KT 10SM CLR 27/24 A3014 RMK AO2 T02700241 10311 20270

10-Day Weather Forecast

Almanac

Astronomy

Aug. 29, 2016 Rise Set
Actual Time
Civil Twilight
Nautical Twilight
Astronomical Twilight
Moon
Length of Visible Light
Length of Day
Tomorrow will be .
, % of the Moon is Illuminated

Today's Extremes

State Highs State Lows

Community

WunderPhotos

Upload Photos

1,935,701 photos uploaded!

WunderBlog® & News

Nearby

Air Quality

  Air Quality AQ Index Pollutant
Not available.

Snow Depth

Station Depth Elevation

Earthquake Activity

City Distance Mag. Time & Date
Minimum magnitude displayed is 2.5.

Coastal Water Temperatures

Place Temperature

Stations

Nearby Weather Stations

Station Location Temp. Windchill Dew Point Humidity Wind Precip. Elev Updated Type
                   

Watches & Warnings

There are currently no watches in effect.